CPA548 VHHH-RJTT
Flight info
| Callsign | CPA548 |
|---|---|
| Flight time | N/A |
| Altitude | 39000 |
| Route | DALOL V631 ENVAR M750 BILLY Y21 AKSEL |
| Aircraft | A359/H-SDE2E3GHIJ3J4J5LM1ORWXY/LB1D1 |
Departure
| Time | N/A |
|---|---|
| Airport | Hong Kong International Airport (VHHH) |
Arrival
| Time | 2026-05-06 13:58 |
|---|---|
| Airport | Tokyo Haneda International Airport (RJTT) |
| Time | Latitude | Longitude | Altitude | Speed | Heading |
|---|---|---|---|---|---|
| 2026-05-06 13:20 | 33.59664 | 137.54724 | 39121 ft | 572 kts | 79° |
| 2026-05-06 13:21 | 33.60644 | 137.59343 | 39115 ft | 573 kts | 75° |
| 2026-05-06 13:21 | 33.62105 | 137.63798 | 39130 ft | 575 kts | 64° |
| 2026-05-06 13:21 | 33.63897 | 137.68089 | 39115 ft | 576 kts | 62° |
| 2026-05-06 13:22 | 33.67717 | 137.76558 | 39103 ft | 577 kts | 60° |
| 2026-05-06 13:22 | 33.69659 | 137.80744 | 38889 ft | 569 kts | 60° |
| 2026-05-06 13:22 | 33.71573 | 137.84865 | 38457 ft | 564 kts | 60° |
| 2026-05-06 13:22 | 33.73477 | 137.88986 | 37754 ft | 565 kts | 61° |
| 2026-05-06 13:23 | 33.75376 | 137.93120 | 37129 ft | 565 kts | 61° |
| 2026-05-06 13:23 | 33.77266 | 137.97256 | 36494 ft | 564 kts | 61° |
| 2026-05-06 13:23 | 33.79148 | 138.01390 | 35869 ft | 564 kts | 62° |
| 2026-05-06 13:23 | 33.81027 | 138.05525 | 35339 ft | 562 kts | 62° |
| 2026-05-06 13:24 | 33.82895 | 138.09644 | 34839 ft | 559 kts | 62° |
| 2026-05-06 13:24 | 33.84747 | 138.13733 | 34354 ft | 556 kts | 62° |
| 2026-05-06 13:24 | 33.86592 | 138.17810 | 33821 ft | 553 kts | 62° |
| 2026-05-06 13:24 | 33.88422 | 138.21858 | 33309 ft | 549 kts | 62° |
| 2026-05-06 13:25 | 33.90235 | 138.25875 | 32821 ft | 545 kts | 62° |
| 2026-05-06 13:25 | 33.92039 | 138.29874 | 32335 ft | 540 kts | 62° |
| 2026-05-06 13:25 | 33.93815 | 138.33835 | 31868 ft | 536 kts | 62° |
| 2026-05-06 13:25 | 33.95570 | 138.37778 | 31396 ft | 532 kts | 62° |
| 2026-05-06 13:26 | 33.97303 | 138.41685 | 30920 ft | 528 kts | 62° |
| 2026-05-06 13:26 | 33.99024 | 138.45571 | 30478 ft | 524 kts | 62° |
| 2026-05-06 13:26 | 34.00712 | 138.49383 | 29979 ft | 520 kts | 62° |
| 2026-05-06 13:26 | 34.02407 | 138.53210 | 29503 ft | 515 kts | 62° |
| 2026-05-06 13:27 | 34.04083 | 138.56996 | 29051 ft | 510 kts | 62° |
| 2026-05-06 13:27 | 34.05769 | 138.60808 | 28595 ft | 505 kts | 62° |
| 2026-05-06 13:27 | 34.07411 | 138.64523 | 28132 ft | 500 kts | 62° |
| 2026-05-06 13:27 | 34.09041 | 138.68215 | 27699 ft | 496 kts | 62° |
| 2026-05-06 13:28 | 34.10652 | 138.71869 | 27254 ft | 491 kts | 62° |
| 2026-05-06 13:28 | 34.12249 | 138.75493 | 26816 ft | 487 kts | 62° |
| 2026-05-06 13:28 | 34.13833 | 138.79090 | 26378 ft | 484 kts | 62° |
| 2026-05-06 13:28 | 34.15382 | 138.82615 | 25944 ft | 480 kts | 62° |
| 2026-05-06 13:29 | 34.16941 | 138.86163 | 25511 ft | 477 kts | 62° |
| 2026-05-06 13:29 | 34.18491 | 138.89697 | 25060 ft | 474 kts | 62° |
| 2026-05-06 13:29 | 34.20028 | 138.93206 | 24638 ft | 471 kts | 62° |
| 2026-05-06 13:29 | 34.21554 | 138.96694 | 24220 ft | 468 kts | 62° |
| 2026-05-06 13:30 | 34.23070 | 139.00168 | 23794 ft | 466 kts | 62° |
| 2026-05-06 13:30 | 34.24577 | 139.03616 | 23325 ft | 463 kts | 62° |
| 2026-05-06 13:30 | 34.26079 | 139.07048 | 22837 ft | 460 kts | 62° |
| 2026-05-06 13:30 | 34.27566 | 139.10454 | 22388 ft | 456 kts | 62° |
| 2026-05-06 13:31 | 34.28920 | 139.13911 | 21908 ft | 453 kts | 66° |
| 2026-05-06 13:31 | 34.30178 | 139.17384 | 21484 ft | 449 kts | 68° |
| 2026-05-06 13:31 | 34.31390 | 139.20851 | 21035 ft | 446 kts | 69° |
| 2026-05-06 13:31 | 34.32573 | 139.24294 | 20604 ft | 442 kts | 69° |
| 2026-05-06 13:32 | 34.33745 | 139.27728 | 20180 ft | 438 kts | 69° |
| 2026-05-06 13:32 | 34.34903 | 139.31118 | 19718 ft | 435 kts | 69° |
| 2026-05-06 13:32 | 34.36055 | 139.34488 | 19291 ft | 431 kts | 70° |
| 2026-05-06 13:32 | 34.37197 | 139.37821 | 18858 ft | 427 kts | 70° |
| 2026-05-06 13:33 | 34.38331 | 139.41128 | 18419 ft | 423 kts | 70° |
| 2026-05-06 13:33 | 34.39452 | 139.44400 | 17956 ft | 419 kts | 70° |
| 2026-05-06 13:33 | 34.40562 | 139.47641 | 17525 ft | 413 kts | 69° |
| 2026-05-06 13:33 | 34.41654 | 139.50835 | 17100 ft | 408 kts | 69° |
| 2026-05-06 13:34 | 34.42732 | 139.53989 | 16672 ft | 404 kts | 69° |
| 2026-05-06 13:34 | 34.43799 | 139.57116 | 16276 ft | 400 kts | 68° |
| 2026-05-06 13:34 | 34.44857 | 139.60216 | 15868 ft | 396 kts | 68° |
| 2026-05-06 13:34 | 34.45902 | 139.63284 | 15465 ft | 392 kts | 68° |
| 2026-05-06 13:35 | 34.46937 | 139.66324 | 15061 ft | 389 kts | 67° |
| 2026-05-06 13:35 | 34.48030 | 139.69310 | 14646 ft | 385 kts | 60° |
| 2026-05-06 13:35 | 34.49580 | 139.71850 | 14282 ft | 377 kts | 41° |
| 2026-05-06 13:35 | 34.51622 | 139.73764 | 13889 ft | 368 kts | 29° |
| 2026-05-06 13:36 | 34.53762 | 139.75404 | 13626 ft | 358 kts | 27° |
| 2026-05-06 13:36 | 34.55841 | 139.76952 | 13484 ft | 344 kts | 27° |
| 2026-05-06 13:36 | 34.57848 | 139.78438 | 13286 ft | 333 kts | 27° |
| 2026-05-06 13:36 | 34.59798 | 139.79878 | 13099 ft | 322 kts | 27° |
| 2026-05-06 13:37 | 34.61681 | 139.81266 | 12937 ft | 311 kts | 27° |
| 2026-05-06 13:37 | 34.63513 | 139.82615 | 12663 ft | 305 kts | 27° |
| 2026-05-06 13:37 | 34.65312 | 139.83939 | 12364 ft | 301 kts | 27° |
| 2026-05-06 13:37 | 34.67087 | 139.85246 | 12089 ft | 295 kts | 27° |
| 2026-05-06 13:38 | 34.68826 | 139.86529 | 11929 ft | 291 kts | 27° |
| 2026-05-06 13:38 | 34.70583 | 139.87822 | 11922 ft | 297 kts | 27° |
| 2026-05-06 13:38 | 34.72351 | 139.89124 | 11921 ft | 297 kts | 27° |
| 2026-05-06 13:38 | 34.74118 | 139.90428 | 11921 ft | 298 kts | 27° |
| 2026-05-06 13:39 | 34.75893 | 139.91738 | 11933 ft | 298 kts | 28° |
| 2026-05-06 13:39 | 34.77667 | 139.93049 | 11928 ft | 299 kts | 28° |
| 2026-05-06 13:39 | 34.79442 | 139.94381 | 11930 ft | 300 kts | 30° |
| 2026-05-06 13:39 | 34.80940 | 139.96144 | 11929 ft | 304 kts | 58° |
| 2026-05-06 13:40 | 34.81629 | 139.98542 | 11942 ft | 302 kts | 82° |
| 2026-05-06 13:40 | 34.81922 | 140.01076 | 11939 ft | 303 kts | 84° |
| 2026-05-06 13:40 | 34.82178 | 140.03621 | 11939 ft | 303 kts | 84° |
| 2026-05-06 13:40 | 34.82442 | 140.06165 | 11936 ft | 303 kts | 84° |
| 2026-05-06 13:41 | 34.82715 | 140.08714 | 11940 ft | 303 kts | 84° |
| 2026-05-06 13:41 | 34.83155 | 140.11219 | 11931 ft | 305 kts | 69° |
| 2026-05-06 13:41 | 34.84082 | 140.13532 | 11940 ft | 304 kts | 60° |
| 2026-05-06 13:41 | 34.85123 | 140.15772 | 11941 ft | 304 kts | 59° |
| 2026-05-06 13:42 | 34.86170 | 140.18011 | 11942 ft | 304 kts | 60° |
| 2026-05-06 13:42 | 34.87213 | 140.20255 | 11938 ft | 304 kts | 59° |
| 2026-05-06 13:42 | 34.88251 | 140.22502 | 11939 ft | 305 kts | 60° |
| 2026-05-06 13:42 | 34.89461 | 140.24608 | 11934 ft | 303 kts | 42° |
| 2026-05-06 13:43 | 34.91072 | 140.26228 | 11944 ft | 300 kts | 33° |
| 2026-05-06 13:43 | 34.92767 | 140.27715 | 11942 ft | 300 kts | 32° |
| 2026-05-06 13:43 | 34.94461 | 140.29194 | 11944 ft | 300 kts | 32° |
| 2026-05-06 13:43 | 34.96133 | 140.30664 | 11940 ft | 300 kts | 33° |
| 2026-05-06 13:44 | 34.97807 | 140.32143 | 11942 ft | 300 kts | 33° |
| 2026-05-06 13:44 | 34.98630 | 140.32865 | 11935 ft | 298 kts | 32° |
| 2026-05-06 13:44 | 35.00230 | 140.33896 | 11930 ft | 294 kts | 12° |
| 2026-05-06 13:44 | 35.02198 | 140.34002 | 11936 ft | 279 kts | 341° |
| 2026-05-06 13:45 | 35.03881 | 140.33003 | 11913 ft | 267 kts | 314° |
| 2026-05-06 13:45 | 35.05329 | 140.29182 | 11464 ft | 249 kts | 268° |
| 2026-05-06 13:45 | 35.05446 | 140.27061 | 11236 ft | 253 kts | 278° |
| 2026-05-06 13:46 | 35.05963 | 140.25003 | 11012 ft | 255 kts | 287° |
| 2026-05-06 13:46 | 35.06623 | 140.22990 | 10778 ft | 255 kts | 288° |
| 2026-05-06 13:46 | 35.07299 | 140.20990 | 10554 ft | 254 kts | 288° |
| 2026-05-06 13:46 | 35.07973 | 140.18994 | 10337 ft | 254 kts | 288° |
| 2026-05-06 13:47 | 35.08645 | 140.17000 | 10108 ft | 255 kts | 288° |
| 2026-05-06 13:47 | 35.09318 | 140.14994 | 9868 ft | 255 kts | 288° |
| 2026-05-06 13:47 | 35.09988 | 140.12998 | 9636 ft | 254 kts | 288° |
| 2026-05-06 13:47 | 35.10656 | 140.11004 | 9410 ft | 253 kts | 288° |
| 2026-05-06 13:48 | 35.11323 | 140.09013 | 9189 ft | 253 kts | 288° |
| 2026-05-06 13:48 | 35.11989 | 140.07023 | 8964 ft | 252 kts | 288° |
| 2026-05-06 13:48 | 35.12651 | 140.05043 | 8729 ft | 252 kts | 288° |
| 2026-05-06 13:48 | 35.13311 | 140.03067 | 8520 ft | 251 kts | 287° |
| 2026-05-06 13:49 | 35.13977 | 140.01102 | 8296 ft | 251 kts | 289° |
| 2026-05-06 13:49 | 35.14950 | 139.99303 | 8072 ft | 259 kts | 310° |
| 2026-05-06 13:49 | 35.16516 | 139.98172 | 7766 ft | 270 kts | 340° |
| 2026-05-06 13:49 | 35.18405 | 139.97963 | 7390 ft | 276 kts | 357° |
| 2026-05-06 13:50 | 35.20320 | 139.98052 | 7020 ft | 276 kts | 358° |
| 2026-05-06 13:50 | 35.22240 | 139.98136 | 6665 ft | 274 kts | 356° |
| 2026-05-06 13:50 | 35.24114 | 139.98012 | 6414 ft | 262 kts | 348° |
| 2026-05-06 13:50 | 35.25840 | 139.97608 | 6152 ft | 244 kts | 340° |
| 2026-05-06 13:51 | 35.27409 | 139.96962 | 5814 ft | 231 kts | 332° |
| 2026-05-06 13:51 | 35.28842 | 139.96113 | 5718 ft | 224 kts | 326° |
| 2026-05-06 13:51 | 35.30146 | 139.95220 | 5584 ft | 204 kts | 324° |
| 2026-05-06 13:51 | 35.31339 | 139.94382 | 5311 ft | 194 kts | 324° |
| 2026-05-06 13:52 | 35.32502 | 139.93556 | 4934 ft | 191 kts | 324° |
| 2026-05-06 13:52 | 35.33634 | 139.92761 | 4705 ft | 184 kts | 325° |
| 2026-05-06 13:52 | 35.34723 | 139.91998 | 4536 ft | 177 kts | 324° |
| 2026-05-06 13:52 | 35.35760 | 139.91263 | 4293 ft | 173 kts | 323° |
| 2026-05-06 13:53 | 35.36812 | 139.90519 | 4044 ft | 171 kts | 323° |
| 2026-05-06 13:53 | 35.37828 | 139.89802 | 3961 ft | 172 kts | 323° |
| 2026-05-06 13:53 | 35.38865 | 139.89071 | 3715 ft | 172 kts | 324° |
| 2026-05-06 13:53 | 35.39905 | 139.88336 | 3408 ft | 173 kts | 324° |
| 2026-05-06 13:54 | 35.40950 | 139.87595 | 3090 ft | 175 kts | 324° |
| 2026-05-06 13:54 | 35.42013 | 139.86840 | 2761 ft | 177 kts | 324° |
| 2026-05-06 13:54 | 35.43074 | 139.86087 | 2514 ft | 174 kts | 324° |
| 2026-05-06 13:54 | 35.44107 | 139.85355 | 2249 ft | 169 kts | 324° |
| 2026-05-06 13:55 | 35.45097 | 139.84653 | 2075 ft | 161 kts | 324° |
| 2026-05-06 13:55 | 35.46052 | 139.83976 | 1811 ft | 155 kts | 324° |
| 2026-05-06 13:55 | 35.46966 | 139.83325 | 1548 ft | 150 kts | 325° |
| 2026-05-06 13:55 | 35.47867 | 139.82684 | 1347 ft | 150 kts | 324° |
| 2026-05-06 13:56 | 35.48762 | 139.82046 | 1141 ft | 149 kts | 326° |
| 2026-05-06 13:56 | 35.49661 | 139.81408 | 949 ft | 149 kts | 326° |
| 2026-05-06 13:56 | 35.50553 | 139.80773 | 756 ft | 148 kts | 327° |
| 2026-05-06 13:56 | 35.51446 | 139.80138 | 568 ft | 148 kts | 328° |
| 2026-05-06 13:57 | 35.52335 | 139.79506 | 366 ft | 146 kts | 328° |
| 2026-05-06 13:57 | 35.53216 | 139.78878 | 168 ft | 148 kts | 329° |
| 2026-05-06 13:57 | 35.54099 | 139.78244 | 39 ft | 144 kts | 329° |
| 2026-05-06 13:57 | 35.54850 | 139.77720 | 31 ft | 87 kts | 330° |
| 2026-05-06 13:58 | 35.55187 | 139.77485 | 31 ft | 36 kts | 330° |
| 2026-05-06 13:58 | 35.55396 | 139.77371 | 31 ft | 33 kts | 347° |
| 2026-05-06 13:58 | 35.55518 | 139.77357 | 30 ft | 10 kts | 6° |
| 2026-05-06 13:58 | 35.55577 | 139.77403 | 29 ft | 10 kts | 68° |
| 2026-05-06 13:59 | 35.55550 | 139.77474 | 30 ft | 10 kts | 140° |
| 2026-05-06 13:59 | 35.55488 | 139.77524 | 30 ft | 12 kts | 151° |
| 2026-05-06 13:59 | 35.55401 | 139.77585 | 30 ft | 17 kts | 150° |
| 2026-05-06 13:59 | 35.55288 | 139.77665 | 30 ft | 21 kts | 150° |
| 2026-05-06 14:00 | 35.55153 | 139.77759 | 30 ft | 23 kts | 150° |
| 2026-05-06 14:00 | 35.55011 | 139.77860 | 30 ft | 23 kts | 149° |
| 2026-05-06 14:00 | 35.54891 | 139.77945 | 30 ft | 4 kts | 150° |
| 2026-05-06 14:00 | 35.54865 | 139.77967 | 30 ft | 14 kts | 145° |
| 2026-05-06 14:01 | 35.54840 | 139.78054 | 30 ft | 7 kts | 74° |
| 2026-05-06 14:01 | 35.54848 | 139.78079 | 30 ft | 0 kts | 67° |
| 2026-05-06 14:01 | 35.54854 | 139.78091 | 31 ft | 3 kts | 58° |
| 2026-05-06 14:02 | 35.54909 | 139.78151 | 31 ft | 9 kts | 36° |
| 2026-05-06 14:02 | 35.54943 | 139.78195 | 31 ft | 4 kts | 55° |
| 2026-05-06 14:02 | 35.54954 | 139.78217 | 31 ft | 0 kts | 58° |